Time;durP1;ratioP1;P1;durP2;ratioP2;P2;SDS_P1;SDS_P2;PMS_P1;PMS_P2;Temp;Humidity;BMP_temperature;BMP_pressure;BME280_temperature;BME280_humidity;BME280_pressure;Samples;Min_cycle;Max_cycle;Signal;HPM_P1;HPM_P2
2022/03/04 00:02:02;;;;;;;18.88;10.57;;;1.70;99.90;;;;;;6276614;22;20084;-80
2022/03/04 00:04:28;;;;;;;21.00;10.15;;;1.60;99.90;;;;;;6250337;22;20114;-82
2022/03/04 00:06:55;;;;;;;25.20;11.32;;;1.60;99.90;;;;;;6273958;22;20047;-80
2022/03/04 00:09:21;;;;;;;26.67;12.15;;;1.60;99.90;;;;;;6249837;22;20470;-80
2022/03/04 00:11:50;;;;;;;20.77;11.40;;;1.60;99.90;;;;;;6303514;22;20019;-78
2022/03/04 00:14:17;;;;;;;25.98;12.43;;;1.60;99.90;;;;;;6274823;22;20030;-79
2022/03/04 00:16:43;;;;;;;27.38;11.98;;;1.50;99.90;;;;;;6274309;22;20391;-83
2022/03/04 00:19:12;;;;;;;26.45;11.95;;;1.40;99.90;;;;;;6274233;22;20101;-84
2022/03/04 00:21:46;;;;;;;24.52;11.60;;;1.50;99.90;;;;;;6274904;22;20064;-79
2022/03/04 00:24:12;;;;;;;24.45;12.15;;;1.50;99.90;;;;;;6249253;22;20011;-79
2022/03/04 00:26:39;;;;;;;23.13;12.07;;;1.40;99.90;;;;;;6273929;22;20021;-78
2022/03/04 00:29:06;;;;;;;21.88;11.07;;;1.40;99.90;;;;;;6274673;22;20335;-80
2022/03/04 00:31:33;;;;;;;18.92;10.70;;;1.30;99.90;;;;;;6248016;22;20012;-81
2022/03/04 00:33:59;;;;;;;23.33;12.43;;;1.30;99.90;;;;;;6274874;22;20015;-82
2022/03/04 00:36:25;;;;;;;23.52;11.77;;;1.30;99.90;;;;;;6275183;22;20069;-79
2022/03/04 00:38:52;;;;;;;23.77;12.77;;;1.20;99.90;;;;;;6302511;22;20754;-80
2022/03/04 00:41:20;;;;;;;22.05;10.90;;;1.30;99.90;;;;;;6274996;22;20023;-80
2022/03/04 00:43:47;;;;;;;26.27;12.52;;;1.80;99.90;;;;;;6271230;22;20443;-79
2022/03/04 00:46:14;;;;;;;26.20;12.50;;;1.30;99.90;;;;;;6275816;22;20023;-79
2022/03/04 00:48:42;;;;;;;25.55;12.48;;;1.20;99.90;;;;;;6274486;22;20043;-82
2022/03/04 00:51:10;;;;;;;28.10;12.63;;;1.20;99.90;;;;;;6275681;22;20084;-82
2022/03/04 00:53:36;;;;;;;26.40;13.52;;;1.20;99.90;;;;;;6249812;22;20347;-79
2022/03/04 00:56:02;;;;;;;28.92;13.57;;;1.20;99.90;;;;;;6250191;22;20034;-80
2022/03/04 00:58:28;;;;;;;25.08;13.75;;;1.20;99.90;;;;;;6274947;22;20339;-79
2022/03/04 01:00:54;;;;;;;27.65;13.48;;;1.20;99.90;;;;;;6273915;22;20011;-80
2022/03/04 01:03:20;;;;;;;26.00;14.02;;;1.10;99.90;;;;;;6249416;22;20016;-81
2022/03/04 01:05:45;;;;;;;26.77;13.70;;;1.00;99.90;;;;;;6248557;22;20054;-81
2022/03/04 01:08:11;;;;;;;32.00;14.23;;;1.10;99.90;;;;;;6249365;22;20015;-80
2022/03/04 01:10:37;;;;;;;28.30;13.73;;;0.90;99.90;;;;;;6250302;22;20389;-81
2022/03/04 01:13:03;;;;;;;25.05;14.23;;;1.00;99.90;;;;;;6274919;22;20019;-84
2022/03/04 01:15:29;;;;;;;28.20;14.80;;;1.00;99.90;;;;;;6224361;22;20022;-79
2022/03/04 01:17:55;;;;;;;27.48;14.38;;;0.90;99.90;;;;;;6275651;22;20144;-81
2022/03/04 01:20:21;;;;;;;27.15;12.30;;;0.90;99.90;;;;;;6251737;22;20090;-81
2022/03/04 01:22:47;;;;;;;26.95;13.88;;;0.90;99.90;;;;;;6250135;22;20046;-81
2022/03/04 01:25:13;;;;;;;26.67;13.00;;;0.90;99.90;;;;;;6275640;22;20061;-81
2022/03/04 01:27:38;;;;;;;27.13;14.38;;;0.80;99.90;;;;;;6250558;22;20077;-80
2022/03/04 01:30:06;;;;;;;27.65;14.88;;;0.80;99.90;;;;;;6274755;22;20007;-79
2022/03/04 01:32:32;;;;;;;32.00;15.63;;;0.80;99.90;;;;;;6276565;22;20007;-78
2022/03/04 01:34:58;;;;;;;28.63;14.63;;;0.60;99.90;;;;;;6276753;22;20530;-79
2022/03/04 01:37:24;;;;;;;30.30;15.45;;;0.60;99.90;;;;;;6252919;22;20018;-78
2022/03/04 01:39:50;;;;;;;30.67;14.55;;;1.00;99.90;;;;;;6252001;22;20076;-81
2022/03/04 01:42:16;;;;;;;28.65;14.73;;;0.60;99.90;;;;;;6278622;22;20007;-83
2022/03/04 01:44:42;;;;;;;27.95;15.30;;;0.50;99.90;;;;;;6252344;22;20015;-78
2022/03/04 01:47:07;;;;;;;28.52;14.50;;;0.50;99.90;;;;;;6252147;22;20312;-81
2022/03/04 01:49:34;;;;;;;30.30;15.52;;;0.50;99.90;;;;;;6278503;22;20023;-82
2022/03/04 01:51:59;;;;;;;27.67;15.18;;;0.50;99.90;;;;;;6278330;22;20111;-80
2022/03/04 01:54:25;;;;;;;22.95;11.07;;;0.50;99.90;;;;;;6278819;22;20075;-80
2022/03/04 01:56:51;;;;;;;28.58;14.65;;;0.50;99.90;;;;;;6252460;22;20101;-84
2022/03/04 01:59:18;;;;;;;29.52;14.65;;;0.60;99.90;;;;;;6278098;22;20771;-81
2022/03/04 02:02:02;;;;;;;36.90;17.25;;;0.50;99.90;;;;;;6308371;22;20045;-81
2022/03/04 02:04:27;;;;;;;28.70;14.00;;;0.40;99.90;;;;;;6254055;22;20011;-84
2022/03/04 02:06:53;;;;;;;31.25;15.85;;;0.50;99.90;;;;;;6252615;22;20128;-81
2022/03/04 02:09:19;;;;;;;28.73;15.70;;;0.50;99.90;;;;;;6278624;22;20072;-83
2022/03/04 02:11:45;;;;;;;33.83;15.63;;;0.40;99.90;;;;;;6272792;22;20374;-85
2022/03/04 02:14:11;;;;;;;32.28;16.38;;;0.40;99.90;;;;;;6246965;22;20434;-79
2022/03/04 02:16:51;;;;;;;33.28;16.83;;;0.50;99.90;;;;;;6236413;22;20012;-80
2022/03/04 02:19:19;;;;;;;31.95;15.68;;;0.30;99.90;;;;;;6247132;22;20018;-81
2022/03/04 02:21:55;;;;;;;36.20;17.33;;;0.40;99.90;;;;;;6238403;22;20016;-82
2022/03/04 02:24:25;;;;;;;30.85;15.13;;;0.40;99.90;;;;;;6273354;22;20012;-83
2022/03/04 02:26:55;;;;;;;32.60;15.90;;;0.30;99.90;;;;;;6239279;22;20094;-84
2022/03/04 02:29:22;;;;;;;28.23;14.77;;;0.30;99.90;;;;;;6269973;22;20026;-82
2022/03/04 02:31:48;;;;;;;33.88;16.52;;;0.30;99.90;;;;;;6238676;22;20086;-83
2022/03/04 02:34:14;;;;;;;34.70;16.05;;;0.60;99.90;;;;;;6272492;22;20011;-81
2022/03/04 02:36:40;;;;;;;36.58;16.63;;;0.20;99.90;;;;;;6236368;22;20016;-79
2022/03/04 02:39:06;;;;;;;32.05;15.30;;;0.20;99.90;;;;;;6247235;22;20018;-80
2022/03/04 02:41:36;;;;;;;30.92;15.55;;;0.20;99.90;;;;;;6261260;22;20008;-81
2022/03/04 02:44:07;;;;;;;34.13;16.95;;;0.10;99.90;;;;;;6271488;22;20094;-80
2022/03/04 02:46:33;;;;;;;33.80;16.63;;;0.20;99.90;;;;;;6246122;22;20008;-80
2022/03/04 02:48:59;;;;;;;31.55;16.55;;;0.10;99.90;;;;;;6272451;22;20026;-81
2022/03/04 02:51:25;;;;;;;34.80;16.92;;;0.20;99.90;;;;;;6272965;22;20003;-80
2022/03/04 02:53:51;;;;;;;35.83;17.95;;;0.00;99.90;;;;;;6239894;22;20425;-81
2022/03/04 02:56:17;;;;;;;32.55;16.77;;;0.00;99.90;;;;;;6247579;22;20058;-82
2022/03/04 02:58:43;;;;;;;37.85;16.75;;;0.00;99.90;;;;;;6263381;22;20031;-82
2022/03/04 03:01:09;;;;;;;38.92;16.98;;;-0.10;99.90;;;;;;6248099;22;20012;-80
2022/03/04 03:03:35;;;;;;;36.47;17.13;;;0.00;99.90;;;;;;6261932;22;20008;-80
2022/03/04 03:06:00;;;;;;;32.50;16.83;;;0.00;99.90;;;;;;6248225;22;20074;-82
2022/03/04 03:08:28;;;;;;;35.13;17.13;;;-0.20;99.90;;;;;;6249122;22;20018;-83
2022/03/04 03:10:54;;;;;;;32.20;16.88;;;-0.20;99.90;;;;;;6244452;22;20022;-81
2022/03/04 03:13:20;;;;;;;34.10;16.90;;;-0.20;99.90;;;;;;6251778;22;20026;-79
2022/03/04 03:15:46;;;;;;;35.47;17.52;;;-0.10;99.90;;;;;;6246633;22;20400;-84
2022/03/04 03:18:11;;;;;;;32.45;16.77;;;-0.10;99.90;;;;;;6275581;22;20367;-80
2022/03/04 03:20:37;;;;;;;32.40;17.38;;;-0.30;99.90;;;;;;6247719;22;20008;-82
2022/03/04 03:23:03;;;;;;;34.42;17.15;;;-0.30;99.90;;;;;;6274187;22;20015;-83
2022/03/04 03:25:28;;;;;;;33.33;16.60;;;-0.30;99.90;;;;;;6272611;22;20023;-81
2022/03/04 03:27:54;;;;;;;33.00;16.15;;;-0.30;99.90;;;;;;6247458;22;20125;-82
2022/03/04 03:30:20;;;;;;;31.42;15.55;;;-0.30;99.90;;;;;;6247902;22;20018;-82
2022/03/04 03:32:45;;;;;;;32.88;16.48;;;-0.40;99.90;;;;;;6273756;22;20498;-81
2022/03/04 03:35:11;;;;;;;30.92;15.77;;;-0.40;99.90;;;;;;6273273;22;20445;-82
2022/03/04 03:37:38;;;;;;;32.90;15.57;;;-0.30;99.90;;;;;;6304954;22;20106;-80
2022/03/04 03:40:07;;;;;;;31.83;16.00;;;-0.30;99.90;;;;;;6272358;22;20016;-82
2022/03/04 03:42:32;;;;;;;35.33;17.75;;;-0.40;99.90;;;;;;6272473;22;20054;-83
2022/03/04 03:44:58;;;;;;;32.00;14.75;;;-0.40;99.90;;;;;;6271470;22;20015;-80
2022/03/04 03:47:24;;;;;;;37.30;17.48;;;-0.40;99.90;;;;;;6276231;22;20019;-81
2022/03/04 03:49:50;;;;;;;34.22;17.13;;;-0.40;99.90;;;;;;6271569;22;20395;-82
2022/03/04 03:52:16;;;;;;;31.95;16.70;;;-0.50;99.90;;;;;;6249731;22;20098;-78
2022/03/04 03:54:41;;;;;;;33.10;17.10;;;-0.50;99.90;;;;;;6246570;22;20016;-84
2022/03/04 03:57:07;;;;;;;36.50;16.90;;;-0.50;99.90;;;;;;6273064;22;20023;-82
2022/03/04 03:59:33;;;;;;;35.13;16.52;;;-0.50;99.90;;;;;;6245293;22;20027;-81
2022/03/04 04:01:59;;;;;;;36.00;17.95;;;-0.50;99.90;;;;;;6272589;22;20452;-85
2022/03/04 04:04:25;;;;;;;37.40;18.52;;;-0.50;99.90;;;;;;6277213;22;20021;-81
2022/03/04 04:06:50;;;;;;;34.40;17.60;;;-0.50;99.90;;;;;;6272615;22;20051;-83
2022/03/04 04:09:16;;;;;;;35.88;17.90;;;-0.60;99.90;;;;;;6275120;22;20451;-80
2022/03/04 04:11:43;;;;;;;36.47;16.52;;;-0.60;99.90;;;;;;6246690;22;20043;-83
2022/03/04 04:14:09;;;;;;;37.95;17.73;;;-0.70;99.90;;;;;;6272587;22;20106;-80
2022/03/04 04:16:36;;;;;;;40.28;18.85;;;-0.70;99.90;;;;;;6246936;22;20328;-82
2022/03/04 04:19:03;;;;;;;45.55;20.25;;;-0.60;99.90;;;;;;6246846;22;20762;-81
2022/03/04 04:21:29;;;;;;;46.15;17.25;;;-0.70;99.90;;;;;;6272493;22;20375;-83
2022/03/04 04:23:55;;;;;;;37.83;18.40;;;-0.70;99.90;;;;;;6272614;22;20022;-81
2022/03/04 04:26:22;;;;;;;38.88;19.27;;;-0.70;99.90;;;;;;6275980;22;20031;-79
2022/03/04 04:28:48;;;;;;;41.13;18.52;;;-0.80;99.90;;;;;;6271165;22;20061;-83
2022/03/04 04:31:14;;;;;;;40.33;18.65;;;-0.70;99.90;;;;;;6274721;22;20019;-82
2022/03/04 04:33:40;;;;;;;39.55;19.27;;;-0.70;99.90;;;;;;6271326;22;20087;-83
2022/03/04 04:36:06;;;;;;;41.58;16.95;;;-0.70;99.90;;;;;;6246994;22;20575;-82
2022/03/04 04:38:32;;;;;;;41.17;19.67;;;-0.80;99.90;;;;;;6272199;22;20019;-80
2022/03/04 04:40:57;;;;;;;41.75;20.17;;;-0.70;99.90;;;;;;6246179;22;20051;-83
2022/03/04 04:43:23;;;;;;;46.35;21.35;;;-0.70;99.90;;;;;;6250443;22;20019;-82
2022/03/04 04:45:50;;;;;;;40.17;19.83;;;-0.70;99.90;;;;;;6272275;22;20455;-83
2022/03/04 04:48:16;;;;;;;39.10;19.08;;;-0.80;99.90;;;;;;6279303;22;20087;-83
2022/03/04 04:50:42;;;;;;;45.00;18.25;;;-0.70;99.90;;;;;;6273537;22;20015;-83
2022/03/04 04:53:07;;;;;;;42.28;19.63;;;-0.70;99.90;;;;;;6274685;22;20016;-80
2022/03/04 04:55:33;;;;;;;42.08;20.20;;;-0.70;99.90;;;;;;6305702;22;20023;-85
2022/03/04 04:57:59;;;;;;;53.38;20.20;;;-0.20;99.90;;;;;;6272138;22;20022;-82
2022/03/04 05:00:25;;;;;;;45.15;19.85;;;-0.70;99.90;;;;;;6250685;22;20015;-80
2022/03/04 05:02:51;;;;;;;42.63;19.65;;;-0.70;99.90;;;;;;6272034;22;20073;-82
2022/03/04 05:05:18;;;;;;;47.97;20.83;;;-0.70;99.90;;;;;;6274695;22;20015;-81
2022/03/04 05:07:44;;;;;;;40.95;20.27;;;-0.70;99.90;;;;;;6246386;22;20443;-81
2022/03/04 05:10:10;;;;;;;45.10;19.70;;;-0.70;99.90;;;;;;6248591;22;20157;-83
2022/03/04 05:12:35;;;;;;;42.90;20.05;;;-0.80;99.90;;;;;;6273457;22;20015;-80
2022/03/04 05:15:01;;;;;;;38.60;16.65;;;-0.70;99.90;;;;;;6247364;22;20041;-82
2022/03/04 05:17:50;;;;;;;49.10;21.23;;;-0.70;99.90;;;;;;6274193;22;20026;-80
2022/03/04 05:20:16;;;;;;;44.15;20.08;;;-0.60;99.90;;;;;;6277242;22;20094;-80
2022/03/04 05:22:42;;;;;;;45.75;21.30;;;-0.70;99.90;;;;;;6276487;22;20035;-82
2022/03/04 05:25:08;;;;;;;43.53;19.13;;;-0.60;99.90;;;;;;6275383;22;20105;-83
2022/03/04 05:27:33;;;;;;;49.22;21.80;;;-0.70;99.90;;;;;;6274919;22;20047;-81
2022/03/04 05:29:59;;;;;;;49.53;21.83;;;-0.60;99.90;;;;;;6273514;22;20012;-81
2022/03/04 05:32:25;;;;;;;44.30;20.60;;;-0.50;99.90;;;;;;6278617;22;20014;-80
2022/03/04 05:34:50;;;;;;;49.65;21.80;;;-0.60;99.90;;;;;;6248406;22;20020;-80
2022/03/04 05:37:16;;;;;;;46.85;21.13;;;-0.50;99.90;;;;;;6276836;22;20023;-84
2022/03/04 05:39:42;;;;;;;44.63;21.85;;;-0.50;99.90;;;;;;6248403;22;20404;-83
2022/03/04 05:42:07;;;;;;;47.17;21.77;;;-0.60;99.90;;;;;;6274797;22;20440;-82
2022/03/04 05:44:33;;;;;;;49.28;22.48;;;-0.70;99.90;;;;;;6246698;22;20062;-82
2022/03/04 05:46:59;;;;;;;49.20;21.90;;;-0.60;99.90;;;;;;6273522;22;20012;-78
2022/03/04 05:49:24;;;;;;;43.13;20.48;;;-0.60;99.90;;;;;;6278300;22;20015;-82
2022/03/04 05:51:50;;;;;;;42.63;20.25;;;-0.70;99.90;;;;;;6273248;22;20004;-85
2022/03/04 05:54:16;;;;;;;42.50;20.05;;;-0.70;99.90;;;;;;6250280;22;20305;-85
2022/03/04 05:56:42;;;;;;;35.58;15.10;;;-0.70;99.90;;;;;;6247574;22;20051;-81
2022/03/04 05:59:07;;;;;;;42.70;20.55;;;-0.60;99.90;;;;;;6272503;22;20038;-80
2022/03/04 06:01:33;;;;;;;43.50;20.50;;;-0.60;99.90;;;;;;6306227;22;20022;-82
2022/03/04 06:03:58;;;;;;;48.97;19.90;;;-0.70;99.90;;;;;;6246673;22;20015;-83
2022/03/04 06:06:25;;;;;;;29.92;12.70;;;-0.70;99.90;;;;;;6277676;22;20110;-84
2022/03/04 06:08:51;;;;;;;39.60;19.30;;;-0.70;99.90;;;;;;6247225;22;20478;-81
2022/03/04 06:11:18;;;;;;;36.38;16.92;;;-0.60;99.90;;;;;;6276055;22;20020;-83
2022/03/04 06:13:45;;;;;;;41.25;19.75;;;-0.60;99.90;;;;;;6246729;22;20049;-83
2022/03/04 06:16:11;;;;;;;39.60;19.58;;;-0.60;99.90;;;;;;6248747;22;20022;-83
2022/03/04 06:18:37;;;;;;;38.50;20.58;;;-0.60;99.90;;;;;;6272892;22;20469;-86
2022/03/04 06:21:04;;;;;;;41.92;20.05;;;-0.60;99.90;;;;;;6247296;22;20021;-84
2022/03/04 06:23:30;;;;;;;41.75;21.35;;;-0.70;99.90;;;;;;6247996;22;20023;-83
2022/03/04 06:25:57;;;;;;;41.97;21.45;;;-0.70;99.90;;;;;;6247621;22;20012;-84
2022/03/04 06:28:25;;;;;;;45.58;21.75;;;-0.70;99.90;;;;;;6276914;22;20435;-82
2022/03/04 06:30:51;;;;;;;47.78;23.35;;;-0.80;99.90;;;;;;6247941;22;20438;-82
2022/03/04 06:33:32;;;;;;;45.45;21.40;;;-0.70;99.90;;;;;;6275828;22;20015;-81
2022/03/04 06:36:14;;;;;;;42.42;22.27;;;-0.50;99.90;;;;;;6246734;22;20099;-82
2022/03/04 06:38:42;;;;;;;45.50;22.73;;;-0.50;99.90;;;;;;6276216;22;20018;-81
2022/03/04 06:41:09;;;;;;;39.33;20.85;;;-0.50;99.90;;;;;;6275159;22;20050;-83
2022/03/04 06:43:35;;;;;;;46.42;21.33;;;-0.50;99.90;;;;;;6270224;22;20016;-83
2022/03/04 06:46:04;;;;;;;46.33;23.20;;;-0.50;99.90;;;;;;6245095;22;20394;-79
2022/03/04 06:48:30;;;;;;;43.92;22.30;;;-0.50;99.90;;;;;;6245554;22;20008;-82
2022/03/04 06:50:56;;;;;;;44.88;22.02;;;-0.40;99.90;;;;;;6247365;22;20026;-82
2022/03/04 06:53:24;;;;;;;44.75;21.35;;;-0.30;99.90;;;;;;6277576;22;20008;-84
2022/03/04 06:55:51;;;;;;;42.50;20.27;;;-0.40;99.90;;;;;;6247902;22;20016;-82
2022/03/04 06:58:17;;;;;;;40.67;21.42;;;-0.30;99.90;;;;;;6276063;22;20046;-80
2022/03/04 07:00:43;;;;;;;38.85;19.73;;;0.20;99.90;;;;;;6272398;22;20135;-79
2022/03/04 07:03:09;;;;;;;34.50;17.13;;;-0.30;99.90;;;;;;6275036;22;20014;-83
2022/03/04 07:05:37;;;;;;;41.08;20.63;;;-0.30;99.90;;;;;;6247104;22;20020;-80
2022/03/04 07:08:04;;;;;;;41.67;21.38;;;-0.30;99.90;;;;;;6247699;22;20054;-82
2022/03/04 07:10:29;;;;;;;40.47;21.40;;;-0.20;99.90;;;;;;6272694;22;20016;-79
2022/03/04 07:12:56;;;;;;;39.47;19.83;;;-0.30;99.90;;;;;;6297642;22;20019;-79
2022/03/04 07:15:21;;;;;;;35.60;16.98;;;-0.30;99.90;;;;;;6277205;22;20056;-81
2022/03/04 07:17:47;;;;;;;40.67;20.02;;;-0.30;99.90;;;;;;6251448;22;20499;-79
2022/03/04 07:20:13;;;;;;;31.58;15.50;;;-0.20;99.90;;;;;;6276715;22;20018;-80
2022/03/04 07:22:40;;;;;;;42.65;20.33;;;-0.30;99.90;;;;;;6250063;22;20023;-80
2022/03/04 07:25:08;;;;;;;36.55;17.98;;;-0.30;99.90;;;;;;6250859;22;20018;-82
2022/03/04 07:27:34;;;;;;;40.10;20.25;;;-0.20;99.90;;;;;;6249770;22;20026;-83
2022/03/04 07:30:00;;;;;;;39.67;22.40;;;-0.10;99.90;;;;;;6274801;22;20327;-80
2022/03/04 07:32:26;;;;;;;44.58;20.05;;;0.30;99.90;;;;;;6302475;22;20279;-79
2022/03/04 07:34:52;;;;;;;37.92;19.58;;;0.70;99.90;;;;;;6304934;22;20144;-81
2022/03/04 07:37:17;;;;;;;45.67;21.88;;;0.60;99.90;;;;;;6275202;22;20787;-81
2022/03/04 07:39:43;;;;;;;45.42;22.55;;;0.00;99.90;;;;;;6276270;22;20021;-83
2022/03/04 07:42:09;;;;;;;37.20;20.40;;;0.10;99.90;;;;;;6225233;22;20015;-78
2022/03/04 07:44:34;;;;;;;37.03;19.55;;;0.20;99.90;;;;;;6274789;22;20103;-81
2022/03/04 07:47:00;;;;;;;36.10;18.52;;;0.10;99.90;;;;;;6305065;22;20049;-80
2022/03/04 07:49:26;;;;;;;41.10;20.73;;;0.30;99.90;;;;;;6277779;22;20065;-82
2022/03/04 07:51:51;;;;;;;39.53;20.77;;;0.30;99.90;;;;;;6251673;22;20015;-79
2022/03/04 07:54:18;;;;;;;40.58;20.30;;;0.30;99.90;;;;;;6249087;22;20412;-80
2022/03/04 07:56:44;;;;;;;37.42;20.58;;;0.30;99.90;;;;;;6274951;22;20053;-83
2022/03/04 07:59:10;;;;;;;28.15;15.60;;;0.30;99.90;;;;;;6275628;22;20027;-79
2022/03/04 08:01:35;;;;;;;36.53;18.60;;;0.30;99.90;;;;;;6251558;22;20347;-83
2022/03/04 08:04:01;;;;;;;33.50;18.40;;;0.30;99.90;;;;;;6249752;22;20070;-82
2022/03/04 08:06:27;;;;;;;35.70;19.50;;;0.40;99.90;;;;;;6275505;22;20042;-81
2022/03/04 08:08:55;;;;;;;33.50;17.95;;;1.20;99.90;;;;;;6249672;22;20015;-83
2022/03/04 08:11:21;;;;;;;27.95;14.35;;;0.50;99.90;;;;;;6275944;22;20011;-81
2022/03/04 08:13:47;;;;;;;36.05;19.85;;;1.20;99.90;;;;;;6275555;22;20462;-81
2022/03/04 08:16:12;;;;;;;35.58;19.42;;;0.60;99.90;;;;;;6276223;22;20026;-78
2022/03/04 08:18:38;;;;;;;35.92;20.00;;;0.60;99.90;;;;;;6251184;22;20015;-82
2022/03/04 08:21:04;;;;;;;33.75;19.25;;;0.60;99.90;;;;;;6304714;22;20033;-80
2022/03/04 08:23:30;;;;;;;34.03;18.60;;;0.70;99.90;;;;;;6250933;22;20019;-81
2022/03/04 08:26:02;;;;;;;33.67;18.48;;;0.80;99.90;;;;;;6251786;22;20319;-83
2022/03/04 08:28:28;;;;;;;30.10;16.02;;;0.80;99.90;;;;;;6275466;22;20574;-81
2022/03/04 08:30:54;;;;;;;30.88;18.23;;;0.60;99.90;;;;;;6276298;22;20022;-82
2022/03/04 08:33:20;;;;;;;32.03;16.73;;;0.70;99.90;;;;;;6251230;22;20018;-81
2022/03/04 08:35:45;;;;;;;30.88;17.67;;;0.70;99.90;;;;;;6276681;22;20015;-79
2022/03/04 08:38:12;;;;;;;32.20;18.83;;;0.80;99.90;;;;;;6277717;22;20033;-82
2022/03/04 08:40:38;;;;;;;29.55;17.50;;;0.70;99.90;;;;;;6251035;22;20442;-79
2022/03/04 08:43:04;;;;;;;34.78;18.77;;;0.70;99.90;;;;;;6275931;22;20094;-80
2022/03/04 08:45:29;;;;;;;30.85;18.55;;;0.70;99.90;;;;;;6277269;22;20016;-84
2022/03/04 08:47:55;;;;;;;34.22;18.92;;;1.80;99.90;;;;;;6254229;22;20015;-82
2022/03/04 08:50:21;;;;;;;30.05;18.15;;;1.00;99.90;;;;;;6279556;22;20018;-81
2022/03/04 08:52:48;;;;;;;32.95;18.13;;;1.10;99.90;;;;;;6279206;22;20011;-81
2022/03/04 08:55:17;;;;;;;32.45;18.63;;;1.00;99.90;;;;;;6279254;22;20030;-82
2022/03/04 08:57:47;;;;;;;28.77;17.45;;;1.20;99.90;;;;;;6278469;22;20011;-82
2022/03/04 09:00:14;;;;;;;30.95;18.45;;;1.80;99.90;;;;;;6277746;22;20007;-82
2022/03/04 09:02:41;;;;;;;30.35;17.00;;;1.20;99.90;;;;;;6279125;22;20011;-82
2022/03/04 09:05:07;;;;;;;30.15;17.55;;;1.60;99.90;;;;;;6277934;22;20025;-82
2022/03/04 09:07:33;;;;;;;24.63;16.92;;;1.40;99.90;;;;;;6278341;22;20033;-81
2022/03/04 09:10:04;;;;;;;29.83;17.55;;;1.40;99.90;;;;;;6277964;22;20015;-82
2022/03/04 09:12:30;;;;;;;28.88;16.48;;;1.30;99.90;;;;;;6253957;22;20016;-85
2022/03/04 09:14:56;;;;;;;29.73;17.85;;;1.30;99.90;;;;;;6279222;22;20015;-80
2022/03/04 09:17:22;;;;;;;30.27;17.98;;;1.30;99.90;;;;;;6276596;22;20080;-83
2022/03/04 09:19:48;;;;;;;27.75;17.02;;;1.80;99.90;;;;;;6275594;22;20319;-79
2022/03/04 09:22:14;;;;;;;31.48;18.15;;;1.40;99.90;;;;;;6251037;22;20015;-79
2022/03/04 09:24:40;;;;;;;27.27;17.10;;;1.50;99.90;;;;;;6276006;22;20019;-79
2022/03/04 09:27:07;;;;;;;32.17;18.13;;;1.60;99.90;;;;;;6275215;22;20019;-81
2022/03/04 09:29:33;;;;;;;30.40;17.33;;;1.60;99.90;;;;;;6275068;22;20011;-79
2022/03/04 09:31:59;;;;;;;28.05;17.60;;;1.60;99.90;;;;;;6276818;22;20026;-80
2022/03/04 09:34:25;;;;;;;32.50;17.85;;;1.70;99.90;;;;;;6251363;22;20311;-78
2022/03/04 09:36:51;;;;;;;29.73;17.33;;;1.80;99.90;;;;;;6276780;22;20015;-79
2022/03/04 09:39:17;;;;;;;30.17;17.08;;;1.70;99.90;;;;;;6251119;22;20070;-83
2022/03/04 09:41:45;;;;;;;30.33;17.42;;;1.70;99.90;;;;;;6277552;22;20022;-80
2022/03/04 09:44:12;;;;;;;25.00;15.82;;;1.70;99.90;;;;;;6276660;22;20052;-78
2022/03/04 09:46:41;;;;;;;29.38;16.98;;;1.90;99.90;;;;;;6251233;22;20470;-79
2022/03/04 09:49:08;;;;;;;25.77;15.63;;;2.00;99.90;;;;;;6276325;22;20016;-79
2022/03/04 09:51:34;;;;;;;25.02;15.90;;;1.80;99.90;;;;;;6252047;22;20072;-78
2022/03/04 09:54:01;;;;;;;29.40;16.17;;;1.70;99.90;;;;;;6250793;22;20015;-82
2022/03/04 09:56:26;;;;;;;25.42;15.77;;;1.80;99.90;;;;;;6276631;22;20026;-80
2022/03/04 09:58:53;;;;;;;27.98;17.50;;;1.70;99.90;;;;;;6274522;22;20012;-81
2022/03/04 10:01:19;;;;;;;27.00;16.30;;;1.90;99.90;;;;;;6249649;22;20308;-78
2022/03/04 10:03:50;;;;;;;29.17;17.58;;;1.90;99.90;;;;;;6251028;22;20065;-75
2022/03/04 10:06:17;;;;;;;26.77;16.77;;;2.00;99.90;;;;;;6251690;22;20074;-77
2022/03/04 10:08:45;;;;;;;29.20;17.65;;;2.10;99.90;;;;;;6251671;22;20015;-77
2022/03/04 10:11:12;;;;;;;32.13;18.17;;;2.20;99.90;;;;;;6225440;22;1182031;-79
2022/03/04 10:13:53;;;;;;;31.48;18.30;;;2.30;99.90;;;;;;6251604;22;20015;-79
2022/03/04 10:16:38;;;;;;;27.85;17.40;;;2.60;99.90;;;;;;6252996;22;20018;-79
2022/03/04 10:19:15;;;;;;;28.23;17.07;;;2.70;99.90;;;;;;6251874;22;20019;-76
2022/03/04 10:21:54;;;;;;;26.13;14.77;;;2.90;99.90;;;;;;6278886;22;20365;-79
2022/03/04 10:24:23;;;;;;;26.05;15.63;;;3.00;99.90;;;;;;6252637;22;20400;-80
2022/03/04 10:27:06;;;;;;;24.83;16.25;;;3.10;99.90;;;;;;6277576;22;20026;-81
2022/03/04 10:29:35;;;;;;;24.23;15.20;;;3.20;99.90;;;;;;6276899;22;20019;-81
2022/03/04 10:32:26;;;;;;;23.52;14.27;;;3.30;99.90;;;;;;6276333;22;20007;-81
2022/03/04 10:35:03;;;;;;;24.98;15.57;;;3.50;99.90;;;;;;6214261;23;20014;-86
2022/03/04 10:37:50;;;;;;;23.23;14.70;;;3.80;99.90;;;;;;6214195;23;20020;-87
2022/03/04 10:40:44;;;;;;;22.88;15.23;;;3.90;99.90;;;;;;6217381;23;20066;-79
2022/03/04 10:43:11;;;;;;;21.60;14.48;;;4.00;99.90;;;;;;6214894;23;20906;-81
2022/03/04 10:45:49;;;;;;;21.33;13.05;;;4.30;99.90;;;;;;6213089;23;20490;-82
2022/03/04 10:48:19;;;;;;;21.02;14.35;;;4.40;99.90;;;;;;6240724;23;20042;-82
2022/03/04 10:50:47;;;;;;;21.70;14.90;;;4.60;99.90;;;;;;6213232;23;20008;-84
2022/03/04 10:53:16;;;;;;;20.92;14.95;;;4.70;99.90;;;;;;6214474;23;20472;-86
2022/03/04 10:55:47;;;;;;;21.48;14.55;;;4.90;99.90;;;;;;6239898;23;20458;-82
2022/03/04 10:58:28;;;;;;;20.80;14.20;;;5.00;99.90;;;;;;6212858;23;20087;-86
2022/03/04 11:01:09;;;;;;;18.30;12.50;;;5.20;99.90;;;;;;6214973;23;20097;-84
2022/03/04 11:03:36;;;;;;;20.65;14.07;;;5.30;99.90;;;;;;6213514;23;20066;-81
2022/03/04 11:06:07;;;;;;;19.17;12.80;;;5.60;99.90;;;;;;6213606;23;20077;-78
2022/03/04 11:08:33;;;;;;;19.95;13.32;;;5.60;99.90;;;;;;6212962;23;20035;-80
2022/03/04 11:11:00;;;;;;;20.63;13.27;;;5.80;99.90;;;;;;6222046;22;20108;-79
2022/03/04 11:13:26;;;;;;;19.38;13.07;;;5.90;99.90;;;;;;6274611;22;20034;-80
2022/03/04 11:15:53;;;;;;;21.08;13.88;;;5.90;99.90;;;;;;6277022;22;20413;-82
2022/03/04 11:18:21;;;;;;;20.45;12.60;;;6.00;99.90;;;;;;6250514;22;20094;-79
2022/03/04 11:20:50;;;;;;;16.63;12.18;;;6.20;99.90;;;;;;6275834;22;20449;-78
2022/03/04 11:23:30;;;;;;;20.30;13.32;;;6.40;99.90;;;;;;6304520;22;20039;-81
2022/03/04 11:25:57;;;;;;;19.30;13.32;;;6.40;99.90;;;;;;6276169;22;20015;-79
2022/03/04 11:28:27;;;;;;;16.73;12.48;;;6.70;99.90;;;;;;6275394;22;20371;-83
2022/03/04 11:31:00;;;;;;;18.08;12.27;;;6.80;99.90;;;;;;6275942;22;20098;-80
2022/03/04 11:33:37;;;;;;;19.27;12.38;;;6.80;99.90;;;;;;6251511;22;20019;-87
2022/03/04 11:36:20;;;;;;;16.30;12.82;;;7.30;99.90;;;;;;6226545;22;20022;-85
2022/03/04 11:38:49;;;;;;;14.07;10.73;;;7.40;99.90;;;;;;6252720;22;20040;-86
2022/03/04 11:41:18;;;;;;;16.38;12.38;;;7.30;99.90;;;;;;6276721;22;20011;-81
2022/03/04 11:44:12;;;;;;;16.38;11.00;;;7.30;99.90;;;;;;6276416;22;20022;-88
2022/03/04 11:46:53;;;;;;;16.08;11.77;;;7.30;99.90;;;;;;6183156;23;20019;-84
2022/03/04 11:49:48;;;;;;;14.88;12.45;;;7.60;99.90;;;;;;6208545;23;20012;-81
2022/03/04 11:52:21;;;;;;;15.20;12.38;;;7.50;99.90;;;;;;6157824;23;20048;-81
2022/03/04 11:54:49;;;;;;;17.80;12.32;;;7.60;99.90;;;;;;6199350;23;20073;-80
2022/03/04 11:57:21;;;;;;;16.60;12.50;;;8.10;99.90;;;;;;6182935;23;20016;-78
2022/03/04 12:00:00;;;;;;;17.95;12.20;;;8.20;99.90;;;;;;6183020;23;20035;-78
2022/03/04 12:02:38;;;;;;;17.10;12.02;;;8.30;99.90;;;;;;6184653;23;20296;-79
2022/03/04 12:05:18;;;;;;;19.88;12.10;;;8.60;99.90;;;;;;6184001;23;20028;-79
2022/03/04 12:07:49;;;;;;;16.85;12.27;;;8.50;99.90;;;;;;6161606;23;20013;-78
2022/03/04 12:10:16;;;;;;;14.88;12.18;;;8.60;99.90;;;;;;6160446;23;20008;-79
2022/03/04 12:13:01;;;;;;;14.85;12.20;;;8.80;99.90;;;;;;6183819;23;20091;-81
2022/03/04 12:15:37;;;;;;;;;;;8.90;99.90;;;;;;6184168;23;20013;-80
2022/03/04 12:18:13;;;;;;;18.98;12.75;;;9.10;99.90;;;;;;6184094;23;20327;-80
2022/03/04 12:20:39;;;;;;;15.48;13.23;;;8.90;99.90;;;;;;6182969;23;20016;-80
2022/03/04 12:23:39;;;;;;;15.77;12.65;;;9.10;99.90;;;;;;6204205;22;20360;-78
2022/03/04 12:26:06;;;;;;;18.38;13.77;;;8.80;99.90;;;;;;6266736;22;20347;-83
2022/03/04 12:28:41;;;;;;;18.88;14.50;;;8.80;99.90;;;;;;6272396;22;20008;-81
2022/03/04 12:31:12;;;;;;;17.92;13.43;;;9.10;99.90;;;;;;6267073;22;20077;-81
2022/03/04 12:33:50;;;;;;;19.92;13.73;;;9.10;99.90;;;;;;6260078;22;20054;-82
2022/03/04 12:36:17;;;;;;;18.55;14.43;;;9.10;99.90;;;;;;6271875;22;20015;-83
2022/03/04 12:38:47;;;;;;;16.35;13.88;;;9.10;99.90;;;;;;6235481;22;20102;-83